Flight Track Log - Related Links

Times and Time Zones

All times are in EDT time to prevent confusion due to time zone crossing. See the N848TC flight status page for this flight to view local times or setup timezone preferences in your user account.

Time Position Orientation Groundspeed Altitude Reporting Facility
EDT Latitude Longitude Course Direction KTS MPH feet Rate Location/Type
Thu 03:13:10 PM 40.5800 -80.4600 283° West 330 380 10,000  Level Cleveland Center
Thu 03:14:10 PM 40.6008 -80.5914 282° West 335 386 10,000  Level Cleveland Center
Thu 03:15:00 PM 40.6174 -80.8536 285° West  Level FlightAware Approximate
Thu 03:15:10 PM 40.6217 -80.7061 283° West 335 386 10,000  Level Cleveland Center
Thu 03:16:00 PM 40.6364 -80.9448 285° West  Level FlightAware Approximate
Thu 03:16:10 PM 40.6403 -80.8211 282° West 335 386 10,000  Level Cleveland Center
Thu 03:17:10 PM 40.6608 -80.9417 283° West 335 386 10,000  Level Cleveland Center
Thu 03:18:10 PM 40.6811 -81.0622 283° West 335 386 10,000  Level Cleveland Center
Thu 03:19:10 PM 40.7244 -81.1667 299° West 330 380 10,000  Level Cleveland Center
Thu 03:20:10 PM 40.7675 -81.2686 299° West 324 373 10,000  Level Cleveland Center
Thu 03:21:10 PM 40.8086 -81.3650 299° West 329 379 10,000  Level Cleveland Center
Thu 03:22:10 PM 40.8517 -81.4697 299° West 329 379 10,000  Level Cleveland Center
Thu 03:23:10 PM 40.9031 -81.5667 305° West 329 379 10,000  Level Cleveland Center
Thu 03:24:10 PM 40.9775 -81.6364 325° Northwest 329 379 10,000 -192 Level Cleveland Center
Thu 03:25:15 PM 41.0661 -81.7233 324° Northwest 328 377 9,600 -1,248 Descending Cleveland Center
Thu 03:26:15 PM 41.1303 -81.7822 325° Northwest 284 327 7,400 -2,191 Descending Cleveland Center
Thu 03:27:10 PM 41.1881 -81.8386 324° Northwest 291 335 5,400 -1,983 Descending Cleveland Center
Thu 03:28:10 PM 41.2458 -81.8950 324° Northwest 271 312 3,600 -1,450 Descending Cleveland Center
Thu 03:29:10 PM 41.3039 -81.9264 338° Northwest 240 276 2,500 -800 Descending Cleveland Center
Thu 03:30:10 PM 41.3517 -81.9275 359° North 188 216 2,000 -622 Descending Cleveland Center
Thu 03:31:25 PM 41.3897 -81.8922 35° Northeast 114 131 1,100 -720 Descending Cleveland Center
Thu 03:33:00 PM 41.4000 -81.8500 72° East  Level FlightAware Approximate
Thu 03:40:00 PM 41.4094 -81.8547 72° East  Level Estimated

Login

Don't have an account? Register now (free) for customized features, flight alerts, and more!